sensor_id;sensor_type;location;lat;lon;timestamp;pressure;altitude;pressure_sealevel;temperature;humidity
71299;BME280;59083;47.974;21.722;2023-03-19T00:00:54;100929.75;;;3.16;71.82
71299;BME280;59083;47.974;21.722;2023-03-19T00:03:55;100927.69;;;3.20;72.45
71299;BME280;59083;47.974;21.722;2023-03-19T00:06:56;100928.53;;;3.20;72.68
71299;BME280;59083;47.974;21.722;2023-03-19T00:09:58;100936.03;;;3.25;73.26
71299;BME280;59083;47.974;21.722;2023-03-19T00:12:59;100939.91;;;3.21;73.35
71299;BME280;59083;47.974;21.722;2023-03-19T00:16:00;100941.44;;;3.23;72.53
71299;BME280;59083;47.974;21.722;2023-03-19T00:19:02;100931.59;;;3.25;72.14
71299;BME280;59083;47.974;21.722;2023-03-19T00:22:04;100943.25;;;3.23;72.04
71299;BME280;59083;47.974;21.722;2023-03-19T00:25:05;100941.31;;;3.25;72.20
71299;BME280;59083;47.974;21.722;2023-03-19T00:28:07;100935.22;;;3.24;71.73
71299;BME280;59083;47.974;21.722;2023-03-19T00:31:14;100929.19;;;3.33;70.95
71299;BME280;59083;47.974;21.722;2023-03-19T00:34:16;100930.47;;;3.39;70.66
71299;BME280;59083;47.974;21.722;2023-03-19T00:37:23;100931.56;;;3.57;67.85
71299;BME280;59083;47.974;21.722;2023-03-19T00:40:24;100927.31;;;3.87;66.97
71299;BME280;59083;47.974;21.722;2023-03-19T00:43:26;100922.91;;;3.97;65.73
71299;BME280;59083;47.974;21.722;2023-03-19T00:46:27;100931.44;;;4.10;65.50
71299;BME280;59083;47.974;21.722;2023-03-19T00:49:28;100934.69;;;4.23;64.77
71299;BME280;59083;47.974;21.722;2023-03-19T00:52:30;100937.81;;;4.38;63.78
71299;BME280;59083;47.974;21.722;2023-03-19T00:55:31;100932.66;;;4.46;63.33
71299;BME280;59083;47.974;21.722;2023-03-19T00:58:33;100935.34;;;4.55;63.00
71299;BME280;59083;47.974;21.722;2023-03-19T01:01:35;100933.16;;;4.61;63.29
71299;BME280;59083;47.974;21.722;2023-03-19T01:04:37;100930.38;;;4.72;63.02
71299;BME280;59083;47.974;21.722;2023-03-19T01:07:38;100929.00;;;4.77;63.80
71299;BME280;59083;47.974;21.722;2023-03-19T01:10:39;100927.88;;;4.80;65.21
71299;BME280;59083;47.974;21.722;2023-03-19T01:13:40;100931.78;;;4.85;64.26
71299;BME280;59083;47.974;21.722;2023-03-19T01:16:42;100929.84;;;4.87;64.28
71299;BME280;59083;47.974;21.722;2023-03-19T01:19:44;100932.34;;;4.89;64.85
71299;BME280;59083;47.974;21.722;2023-03-19T01:22:46;100936.81;;;4.88;64.99
71299;BME280;59083;47.974;21.722;2023-03-19T01:25:47;100942.50;;;4.93;65.85
71299;BME280;59083;47.974;21.722;2023-03-19T01:28:48;100938.72;;;4.96;65.88
71299;BME280;59083;47.974;21.722;2023-03-19T01:31:50;100941.81;;;5.01;66.44
71299;BME280;59083;47.974;21.722;2023-03-19T01:34:52;100936.81;;;4.98;66.83
71299;BME280;59083;47.974;21.722;2023-03-19T01:37:53;100945.44;;;5.00;66.99
71299;BME280;59083;47.974;21.722;2023-03-19T01:40:55;100935.13;;;4.97;67.09
71299;BME280;59083;47.974;21.722;2023-03-19T01:43:57;100946.41;;;4.99;67.79
71299;BME280;59083;47.974;21.722;2023-03-19T01:47:05;100941.81;;;5.01;67.40
71299;BME280;59083;47.974;21.722;2023-03-19T01:50:20;100951.41;;;5.02;67.83
71299;BME280;59083;47.974;21.722;2023-03-19T01:53:27;100938.19;;;5.02;68.12
71299;BME280;59083;47.974;21.722;2023-03-19T01:56:35;100945.16;;;5.03;68.09
71299;BME280;59083;47.974;21.722;2023-03-19T01:59:41;100945.97;;;5.04;68.08
71299;BME280;59083;47.974;21.722;2023-03-19T02:02:51;100941.81;;;5.01;68.69
71299;BME280;59083;47.974;21.722;2023-03-19T02:05:54;100932.91;;;5.02;69.07
71299;BME280;59083;47.974;21.722;2023-03-19T02:08:57;100938.47;;;4.99;68.80
71299;BME280;59083;47.974;21.722;2023-03-19T02:12:00;100950.13;;;4.96;68.84
71299;BME280;59083;47.974;21.722;2023-03-19T02:15:02;100947.66;;;4.95;69.58
71299;BME280;59083;47.974;21.722;2023-03-19T02:18:04;100953.19;;;4.92;69.82
71299;BME280;59083;47.974;21.722;2023-03-19T02:21:09;100949.03;;;4.89;70.05
71299;BME280;59083;47.974;21.722;2023-03-19T02:24:26;100946.25;;;4.91;70.27
71299;BME280;59083;47.974;21.722;2023-03-19T02:27:31;100951.53;;;4.91;70.11
71299;BME280;59083;47.974;21.722;2023-03-19T02:30:33;100953.47;;;4.89;70.68
71299;BME280;59083;47.974;21.722;2023-03-19T02:33:38;100948.47;;;4.86;71.03
71299;BME280;59083;47.974;21.722;2023-03-19T02:36:43;100955.41;;;4.87;70.64
71299;BME280;59083;47.974;21.722;2023-03-19T02:39:57;100961.41;;;4.89;70.71
71299;BME280;59083;47.974;21.722;2023-03-19T02:42:59;100955.41;;;4.87;71.35
71299;BME280;59083;47.974;21.722;2023-03-19T02:46:01;100952.66;;;4.88;71.32
71299;BME280;59083;47.974;21.722;2023-03-19T02:49:03;100956.13;;;4.89;71.13
71299;BME280;59083;47.974;21.722;2023-03-19T02:52:05;100964.03;;;4.89;71.26
71299;BME280;59083;47.974;21.722;2023-03-19T02:55:07;100957.09;;;4.88;71.29
71299;BME280;59083;47.974;21.722;2023-03-19T02:58:09;100966.53;;;4.90;71.55
71299;BME280;59083;47.974;21.722;2023-03-19T03:01:11;100965.44;;;4.93;71.55
71299;BME280;59083;47.974;21.722;2023-03-19T03:04:12;100960.16;;;4.93;71.67
71299;BME280;59083;47.974;21.722;2023-03-19T03:07:16;100961.25;;;4.90;71.39
71299;BME280;59083;47.974;21.722;2023-03-19T03:10:18;100964.31;;;4.86;71.79
71299;BME280;59083;47.974;21.722;2023-03-19T03:13:19;100961.09;;;4.82;71.79
71299;BME280;59083;47.974;21.722;2023-03-19T03:16:21;100959.31;;;4.83;71.87
71299;BME280;59083;47.974;21.722;2023-03-19T03:19:23;100961.94;;;4.83;71.70
71299;BME280;59083;47.974;21.722;2023-03-19T03:22:24;100963.75;;;4.82;71.85
71299;BME280;59083;47.974;21.722;2023-03-19T03:25:25;100960.97;;;4.84;72.04
71299;BME280;59083;47.974;21.722;2023-03-19T03:28:27;100959.56;;;4.80;72.37
71299;BME280;59083;47.974;21.722;2023-03-19T03:31:28;100958.31;;;4.74;72.25
71299;BME280;59083;47.974;21.722;2023-03-19T03:34:30;100957.62;;;4.72;72.28
71299;BME280;59083;47.974;21.722;2023-03-19T03:37:31;100956.63;;;4.73;72.82
71299;BME280;59083;47.974;21.722;2023-03-19T03:40:32;100956.34;;;4.67;72.66
71299;BME280;59083;47.974;21.722;2023-03-19T03:43:34;100956.91;;;4.61;73.00
71299;BME280;59083;47.974;21.722;2023-03-19T03:46:35;100961.47;;;4.58;73.33
71299;BME280;59083;47.974;21.722;2023-03-19T03:49:37;100954.25;;;4.61;73.36
71299;BME280;59083;47.974;21.722;2023-03-19T03:52:38;100958.81;;;4.58;73.26
71299;BME280;59083;47.974;21.722;2023-03-19T03:55:41;100953.38;;;4.50;73.60
71299;BME280;59083;47.974;21.722;2023-03-19T03:58:42;100942.78;;;4.41;74.00
71299;BME280;59083;47.974;21.722;2023-03-19T04:01:44;100949.72;;;4.32;74.21
71299;BME280;59083;47.974;21.722;2023-03-19T04:04:45;100953.03;;;4.25;74.60
71299;BME280;59083;47.974;21.722;2023-03-19T04:07:47;100958.25;;;4.15;75.12
71299;BME280;59083;47.974;21.722;2023-03-19T04:10:49;100953.62;;;4.07;75.25
71299;BME280;59083;47.974;21.722;2023-03-19T04:13:53;100950.97;;;3.98;75.75
71299;BME280;59083;47.974;21.722;2023-03-19T04:16:55;100944.66;;;3.89;76.28
71299;BME280;59083;47.974;21.722;2023-03-19T04:19:56;100947.12;;;3.81;76.54
71299;BME280;59083;47.974;21.722;2023-03-19T04:22:57;100938.75;;;3.76;76.84
71299;BME280;59083;47.974;21.722;2023-03-19T04:26:00;100944.41;;;3.71;77.36
71299;BME280;59083;47.974;21.722;2023-03-19T04:29:02;100940.50;;;3.66;77.64
71299;BME280;59083;47.974;21.722;2023-03-19T04:32:04;100934.66;;;3.62;77.99
71299;BME280;59083;47.974;21.722;2023-03-19T04:35:06;100936.56;;;3.60;77.93
71299;BME280;59083;47.974;21.722;2023-03-19T04:38:08;100931.97;;;3.53;78.40
71299;BME280;59083;47.974;21.722;2023-03-19T04:41:10;100933.44;;;3.46;78.92
71299;BME280;59083;47.974;21.722;2023-03-19T04:44:18;100938.94;;;3.43;79.28
71299;BME280;59083;47.974;21.722;2023-03-19T04:47:19;100936.97;;;3.35;79.90
71299;BME280;59083;47.974;21.722;2023-03-19T04:50:21;100940.56;;;3.34;80.00
71299;BME280;59083;47.974;21.722;2023-03-19T04:53:23;100932.22;;;3.29;80.49
71299;BME280;59083;47.974;21.722;2023-03-19T04:56:25;100940.09;;;3.29;80.46
71299;BME280;59083;47.974;21.722;2023-03-19T04:59:28;100933.62;;;3.33;80.22
71299;BME280;59083;47.974;21.722;2023-03-19T05:02:30;100936.81;;;3.37;80.15
71299;BME280;59083;47.974;21.722;2023-03-19T05:05:31;100935.28;;;3.34;80.45
71299;BME280;59083;47.974;21.722;2023-03-19T05:08:34;100936.59;;;3.40;80.04
71299;BME280;59083;47.974;21.722;2023-03-19T05:11:36;100933.31;;;3.47;79.53
71299;BME280;59083;47.974;21.722;2023-03-19T05:14:38;100931.81;;;3.54;79.57
71299;BME280;59083;47.974;21.722;2023-03-19T05:17:39;100940.44;;;3.56;79.50
71299;BME280;59083;47.974;21.722;2023-03-19T05:20:41;100932.97;;;3.61;79.22
71299;BME280;59083;47.974;21.722;2023-03-19T05:23:44;100936.34;;;3.63;79.67
71299;BME280;59083;47.974;21.722;2023-03-19T05:26:45;100931.50;;;3.68;79.19
71299;BME280;59083;47.974;21.722;2023-03-19T05:29:49;100931.44;;;3.80;79.20
71299;BME280;59083;47.974;21.722;2023-03-19T05:32:50;100927.34;;;3.96;78.46
71299;BME280;59083;47.974;21.722;2023-03-19T05:35:52;100944.16;;;4.05;78.53
71299;BME280;59083;47.974;21.722;2023-03-19T05:38:55;100937.09;;;4.05;78.67
71299;BME280;59083;47.974;21.722;2023-03-19T05:41:57;100936.53;;;4.02;78.25
71299;BME280;59083;47.974;21.722;2023-03-19T05:44:59;100939.09;;;4.13;77.92
71299;BME280;59083;47.974;21.722;2023-03-19T05:48:02;100937.94;;;4.36;77.77
71299;BME280;59083;47.974;21.722;2023-03-19T05:51:05;100940.41;;;4.78;76.00
71299;BME280;59083;47.974;21.722;2023-03-19T05:54:07;100941.81;;;5.01;75.36
71299;BME280;59083;47.974;21.722;2023-03-19T05:57:08;100939.47;;;6.12;72.21
71299;BME280;59083;47.974;21.722;2023-03-19T06:00:12;100941.44;;;7.97;66.91
71299;BME280;59083;47.974;21.722;2023-03-19T06:03:14;100944.22;;;9.70;61.44
71299;BME280;59083;47.974;21.722;2023-03-19T06:06:17;100941.53;;;10.88;54.44
71299;BME280;59083;47.974;21.722;2023-03-19T06:09:19;100941.19;;;11.82;54.00
71299;BME280;59083;47.974;21.722;2023-03-19T06:12:22;100947.41;;;12.77;50.91
71299;BME280;59083;47.974;21.722;2023-03-19T06:15:27;100950.50;;;13.32;49.02
71299;BME280;59083;47.974;21.722;2023-03-19T06:18:29;100949.53;;;13.18;46.25
71299;BME280;59083;47.974;21.722;2023-03-19T06:21:31;100949.78;;;13.44;45.17
71299;BME280;59083;47.974;21.722;2023-03-19T06:24:32;100948.16;;;13.43;45.68
71299;BME280;59083;47.974;21.722;2023-03-19T06:27:34;100949.56;;;13.67;44.72
71299;BME280;59083;47.974;21.722;2023-03-19T06:30:36;100966.88;;;13.22;44.27
71299;BME280;59083;47.974;21.722;2023-03-19T06:33:38;100958.31;;;12.02;47.95
71299;BME280;59083;47.974;21.722;2023-03-19T06:36:39;100949.63;;;11.26;48.52
71299;BME280;59083;47.974;21.722;2023-03-19T06:39:42;100958.75;;;10.39;51.23
71299;BME280;59083;47.974;21.722;2023-03-19T06:42:45;100955.47;;;10.12;53.57
71299;BME280;59083;47.974;21.722;2023-03-19T06:45:47;100954.88;;;9.70;55.43
71299;BME280;59083;47.974;21.722;2023-03-19T06:48:49;100962.69;;;9.79;55.63
71299;BME280;59083;47.974;21.722;2023-03-19T06:51:50;100960.34;;;9.52;55.63
71299;BME280;59083;47.974;21.722;2023-03-19T06:54:51;100962.19;;;9.43;56.07
71299;BME280;59083;47.974;21.722;2023-03-19T06:57:52;100955.87;;;9.77;56.35
71299;BME280;59083;47.974;21.722;2023-03-19T07:00:54;100966.34;;;9.86;54.90
71299;BME280;59083;47.974;21.722;2023-03-19T07:03:55;100967.84;;;9.73;55.26
71299;BME280;59083;47.974;21.722;2023-03-19T07:06:57;100972.47;;;10.03;55.25
71299;BME280;59083;47.974;21.722;2023-03-19T07:09:58;100977.66;;;9.80;54.95
71299;BME280;59083;47.974;21.722;2023-03-19T07:13:00;100970.94;;;10.09;54.03
71299;BME280;59083;47.974;21.722;2023-03-19T07:16:01;100984.94;;;10.11;54.47
71299;BME280;59083;47.974;21.722;2023-03-19T07:19:02;100979.25;;;10.14;54.38
71299;BME280;59083;47.974;21.722;2023-03-19T07:22:03;100987.28;;;10.22;54.91
71299;BME280;59083;47.974;21.722;2023-03-19T07:25:06;100981.41;;;10.34;54.47
71299;BME280;59083;47.974;21.722;2023-03-19T07:28:07;100974.44;;;10.25;53.91
71299;BME280;59083;47.974;21.722;2023-03-19T07:31:08;100993.78;;;10.19;52.34
71299;BME280;59083;47.974;21.722;2023-03-19T07:34:10;100990.59;;;10.71;52.02
71299;BME280;59083;47.974;21.722;2023-03-19T07:37:11;100986.63;;;10.67;52.25
71299;BME280;59083;47.974;21.722;2023-03-19T07:40:12;100986.84;;;10.88;51.59
71299;BME280;59083;47.974;21.722;2023-03-19T07:43:14;100990.50;;;10.95;50.93
71299;BME280;59083;47.974;21.722;2023-03-19T07:46:15;100996.59;;;10.73;49.49
71299;BME280;59083;47.974;21.722;2023-03-19T07:49:18;100976.37;;;10.87;50.48
71299;BME280;59083;47.974;21.722;2023-03-19T07:52:19;100988.28;;;10.68;49.91
71299;BME280;59083;47.974;21.722;2023-03-19T07:55:20;100990.34;;;10.50;50.50
71299;BME280;59083;47.974;21.722;2023-03-19T07:58:22;100991.56;;;10.31;48.82
71299;BME280;59083;47.974;21.722;2023-03-19T08:01:23;100997.25;;;10.36;49.85
71299;BME280;59083;47.974;21.722;2023-03-19T08:04:24;101006.56;;;10.40;47.68
71299;BME280;59083;47.974;21.722;2023-03-19T08:07:26;100996.22;;;10.37;47.71
71299;BME280;59083;47.974;21.722;2023-03-19T08:10:27;100998.56;;;10.40;47.39
71299;BME280;59083;47.974;21.722;2023-03-19T08:13:28;101000.38;;;10.48;47.06
71299;BME280;59083;47.974;21.722;2023-03-19T08:16:29;100996.91;;;10.31;49.28
71299;BME280;59083;47.974;21.722;2023-03-19T08:19:30;100999.72;;;10.38;48.75
71299;BME280;59083;47.974;21.722;2023-03-19T08:22:33;100989.87;;;10.46;48.73
71299;BME280;59083;47.974;21.722;2023-03-19T08:25:35;100994.75;;;10.34;49.26
71299;BME280;59083;47.974;21.722;2023-03-19T08:28:36;100994.91;;;10.41;49.47
71299;BME280;59083;47.974;21.722;2023-03-19T08:31:38;101001.62;;;10.60;48.24
71299;BME280;59083;47.974;21.722;2023-03-19T08:34:39;100988.69;;;10.49;48.33
71299;BME280;59083;47.974;21.722;2023-03-19T08:37:40;100985.31;;;10.63;49.10
71299;BME280;59083;47.974;21.722;2023-03-19T08:40:42;100987.94;;;10.71;49.19
71299;BME280;59083;47.974;21.722;2023-03-19T08:43:43;100987.88;;;10.87;47.54
71299;BME280;59083;47.974;21.722;2023-03-19T08:46:44;100978.88;;;11.11;46.45
71299;BME280;59083;47.974;21.722;2023-03-19T08:49:45;100984.81;;;10.98;47.55
71299;BME280;59083;47.974;21.722;2023-03-19T08:52:47;100985.13;;;11.03;47.02
71299;BME280;59083;47.974;21.722;2023-03-19T08:55:52;100985.44;;;11.31;46.49
71299;BME280;59083;47.974;21.722;2023-03-19T08:58:55;100982.59;;;11.33;45.56
71299;BME280;59083;47.974;21.722;2023-03-19T09:01:56;100984.44;;;11.55;46.22
71299;BME280;59083;47.974;21.722;2023-03-19T09:04:58;100986.91;;;11.79;44.98
71299;BME280;59083;47.974;21.722;2023-03-19T09:07:59;100979.34;;;12.06;43.30
71299;BME280;59083;47.974;21.722;2023-03-19T09:11:00;100976.66;;;12.06;42.32
71299;BME280;59083;47.974;21.722;2023-03-19T09:14:02;100971.78;;;11.72;42.15
71299;BME280;59083;47.974;21.722;2023-03-19T09:17:04;100973.44;;;11.95;44.23
71299;BME280;59083;47.974;21.722;2023-03-19T09:20:05;100967.25;;;11.95;42.91
71299;BME280;59083;47.974;21.722;2023-03-19T09:23:08;100959.34;;;12.02;43.29
71299;BME280;59083;47.974;21.722;2023-03-19T09:26:09;100958.41;;;12.09;42.84
71299;BME280;59083;47.974;21.722;2023-03-19T09:29:12;100952.91;;;11.96;41.78
71299;BME280;59083;47.974;21.722;2023-03-19T09:32:13;100947.62;;;12.02;41.61
71299;BME280;59083;47.974;21.722;2023-03-19T09:35:14;100951.16;;;12.32;41.96
71299;BME280;59083;47.974;21.722;2023-03-19T09:38:15;100955.59;;;12.40;42.98
71299;BME280;59083;47.974;21.722;2023-03-19T09:41:28;100955.84;;;12.30;41.43
71299;BME280;59083;47.974;21.722;2023-03-19T09:44:36;100947.56;;;12.40;41.95
71299;BME280;59083;47.974;21.722;2023-03-19T09:47:39;100942.00;;;12.56;40.72
71299;BME280;59083;47.974;21.722;2023-03-19T09:50:41;100947.56;;;12.91;40.37
71299;BME280;59083;47.974;21.722;2023-03-19T09:53:48;100939.75;;;12.24;39.54
71299;BME280;59083;47.974;21.722;2023-03-19T09:56:53;100936.56;;;12.64;39.93
71299;BME280;59083;47.974;21.722;2023-03-19T09:59:55;100942.06;;;12.77;39.33
71299;BME280;59083;47.974;21.722;2023-03-19T10:12:55;100917.63;;;12.80;40.33
71299;BME280;59083;47.974;21.722;2023-03-19T10:16:00;100905.88;;;12.81;38.58
71299;BME280;59083;47.974;21.722;2023-03-19T10:19:04;100906.28;;;13.00;38.41
71299;BME280;59083;47.974;21.722;2023-03-19T10:22:11;100902.50;;;13.09;39.24
71299;BME280;59083;47.974;21.722;2023-03-19T10:25:24;100889.56;;;12.55;39.23
71299;BME280;59083;47.974;21.722;2023-03-19T10:28:27;100895.47;;;12.87;39.45
71299;BME280;59083;47.974;21.722;2023-03-19T10:31:56;100895.44;;;13.22;38.67
71299;BME280;59083;47.974;21.722;2023-03-19T10:35:07;100889.72;;;13.11;39.02
71299;BME280;59083;47.974;21.722;2023-03-19T10:38:20;100884.59;;;13.09;39.14
71299;BME280;59083;47.974;21.722;2023-03-19T10:44:30;100883.50;;;13.46;37.80
71299;BME280;59083;47.974;21.722;2023-03-19T10:47:37;100873.56;;;13.40;38.10
71299;BME280;59083;47.974;21.722;2023-03-19T10:50:51;100875.62;;;13.38;38.05
71299;BME280;59083;47.974;21.722;2023-03-19T10:53:53;100871.88;;;13.60;36.60
71299;BME280;59083;47.974;21.722;2023-03-19T10:56:59;100861.19;;;13.39;36.67
71299;BME280;59083;47.974;21.722;2023-03-19T11:00:05;100859.12;;;13.13;37.31
71299;BME280;59083;47.974;21.722;2023-03-19T11:03:32;100846.09;;;13.59;38.79
71299;BME280;59083;47.974;21.722;2023-03-19T11:06:35;100852.59;;;13.44;37.40
71299;BME280;59083;47.974;21.722;2023-03-19T11:09:42;100830.56;;;13.76;35.84
71299;BME280;59083;47.974;21.722;2023-03-19T11:12:47;100841.66;;;13.73;35.02
71299;BME280;59083;47.974;21.722;2023-03-19T11:15:53;100831.81;;;13.80;36.37
71299;BME280;59083;47.974;21.722;2023-03-19T11:18:57;100814.34;;;13.56;35.80
71299;BME280;59083;47.974;21.722;2023-03-19T11:25:17;100827.00;;;13.69;35.10
71299;BME280;59083;47.974;21.722;2023-03-19T11:28:24;100818.12;;;13.69;35.77
71299;BME280;59083;47.974;21.722;2023-03-19T11:34:44;100806.44;;;13.42;35.72
71299;BME280;59083;47.974;21.722;2023-03-19T11:37:54;100803.81;;;13.83;35.82
71299;BME280;59083;47.974;21.722;2023-03-19T11:44:20;100803.63;;;13.56;35.80
71299;BME280;59083;47.974;21.722;2023-03-19T11:57:37;100788.84;;;13.60;36.82
71299;BME280;59083;47.974;21.722;2023-03-19T12:00:56;100788.41;;;13.57;37.15
71299;BME280;59083;47.974;21.722;2023-03-19T12:04:28;100779.78;;;13.61;37.51
71299;BME280;59083;47.974;21.722;2023-03-19T12:11:05;100770.81;;;13.41;37.96
71299;BME280;59083;47.974;21.722;2023-03-19T12:21:21;100754.78;;;13.89;37.17
71299;BME280;59083;47.974;21.722;2023-03-19T12:28:28;100738.72;;;13.89;35.72
71299;BME280;59083;47.974;21.722;2023-03-19T12:34:51;100731.75;;;14.07;35.65
71299;BME280;59083;47.974;21.722;2023-03-19T12:38:08;100729.88;;;14.01;35.58
71299;BME280;59083;47.974;21.722;2023-03-19T12:41:23;100726.78;;;13.98;35.55
71299;BME280;59083;47.974;21.722;2023-03-19T12:44:38;100708.97;;;13.71;35.67
71299;BME280;59083;47.974;21.722;2023-03-19T12:47:44;100709.81;;;13.84;34.49
71299;BME280;59083;47.974;21.722;2023-03-19T12:50:49;100714.84;;;14.00;35.53
71299;BME280;59083;47.974;21.722;2023-03-19T12:57:05;100708.59;;;13.87;33.50
71299;BME280;59083;47.974;21.722;2023-03-19T13:00:34;100711.13;;;13.95;34.07
71299;BME280;59083;47.974;21.722;2023-03-19T13:03:48;100709.03;;;13.97;33.95
71299;BME280;59083;47.974;21.722;2023-03-19T13:07:07;100707.00;;;13.99;33.45
71299;BME280;59083;47.974;21.722;2023-03-19T13:10:16;100693.41;;;14.07;33.95
71299;BME280;59083;47.974;21.722;2023-03-19T13:16:30;100690.72;;;13.94;33.68
71299;BME280;59083;47.974;21.722;2023-03-19T13:19:45;100679.72;;;13.76;34.01
71299;BME280;59083;47.974;21.722;2023-03-19T13:22:53;100670.25;;;13.80;34.69
71299;BME280;59083;47.974;21.722;2023-03-19T13:25:57;100671.03;;;13.74;33.84
71299;BME280;59083;47.974;21.722;2023-03-19T13:29:06;100674.72;;;13.59;34.36
71299;BME280;59083;47.974;21.722;2023-03-19T13:32:23;100666.84;;;13.51;34.53
71299;BME280;59083;47.974;21.722;2023-03-19T13:35:38;100655.22;;;13.31;34.19
71299;BME280;59083;47.974;21.722;2023-03-19T13:38:46;100651.75;;;13.37;35.08
71299;BME280;59083;47.974;21.722;2023-03-19T13:41:50;100645.19;;;13.46;35.52
71299;BME280;59083;47.974;21.722;2023-03-19T13:44:53;100645.41;;;13.51;34.78
71299;BME280;59083;47.974;21.722;2023-03-19T13:48:21;100634.53;;;13.59;35.01
71299;BME280;59083;47.974;21.722;2023-03-19T13:51:27;100630.47;;;13.70;36.20
71299;BME280;59083;47.974;21.722;2023-03-19T13:54:34;100622.84;;;13.80;34.29
71299;BME280;59083;47.974;21.722;2023-03-19T13:57:37;100626.53;;;13.73;34.49
71299;BME280;59083;47.974;21.722;2023-03-19T14:10:44;100616.72;;;14.19;34.69
71299;BME280;59083;47.974;21.722;2023-03-19T14:13:47;100619.41;;;14.06;34.10
71299;BME280;59083;47.974;21.722;2023-03-19T14:16:50;100609.28;;;14.08;34.95
71299;BME280;59083;47.974;21.722;2023-03-19T14:19:53;100607.25;;;14.10;34.51
71299;BME280;59083;47.974;21.722;2023-03-19T14:23:11;100608.47;;;14.14;34.55
71299;BME280;59083;47.974;21.722;2023-03-19T14:26:22;100596.13;;;14.20;34.14
71299;BME280;59083;47.974;21.722;2023-03-19T14:29:25;100601.47;;;14.20;34.04
71299;BME280;59083;47.974;21.722;2023-03-19T14:32:33;100598.19;;;14.11;34.02
71299;BME280;59083;47.974;21.722;2023-03-19T14:35:40;100588.28;;;14.05;33.76
71299;BME280;59083;47.974;21.722;2023-03-19T14:38:53;100598.97;;;13.92;34.63
71299;BME280;59083;47.974;21.722;2023-03-19T14:42:20;100591.78;;;13.99;34.48
71299;BME280;59083;47.974;21.722;2023-03-19T14:45:44;100590.94;;;13.92;35.00
71299;BME280;59083;47.974;21.722;2023-03-19T14:55:31;100586.13;;;13.68;34.51
71299;BME280;59083;47.974;21.722;2023-03-19T14:58:33;100576.22;;;13.61;34.64
71299;BME280;59083;47.974;21.722;2023-03-19T15:01:39;100579.53;;;13.63;34.56
71299;BME280;59083;47.974;21.722;2023-03-19T15:04:44;100574.62;;;13.60;35.18
71299;BME280;59083;47.974;21.722;2023-03-19T15:07:48;100570.88;;;13.61;35.79
71299;BME280;59083;47.974;21.722;2023-03-19T15:11:19;100574.16;;;13.57;35.57
71299;BME280;59083;47.974;21.722;2023-03-19T15:17:29;100579.97;;;13.60;35.52
71299;BME280;59083;47.974;21.722;2023-03-19T15:20:36;100581.97;;;13.52;35.82
71299;BME280;59083;47.974;21.722;2023-03-19T15:23:40;100568.34;;;13.40;36.08
71299;BME280;59083;47.974;21.722;2023-03-19T15:26:42;100571.88;;;13.47;35.39
71299;BME280;59083;47.974;21.722;2023-03-19T15:29:43;100572.91;;;13.46;35.20
71299;BME280;59083;47.974;21.722;2023-03-19T15:32:45;100575.81;;;13.51;34.84
71299;BME280;59083;47.974;21.722;2023-03-19T15:35:46;100577.19;;;13.34;35.27
71299;BME280;59083;47.974;21.722;2023-03-19T15:38:56;100583.13;;;13.23;36.19
71299;BME280;59083;47.974;21.722;2023-03-19T15:42:00;100583.84;;;13.10;36.38
71299;BME280;59083;47.974;21.722;2023-03-19T15:45:05;100578.50;;;13.04;36.20
71299;BME280;59083;47.974;21.722;2023-03-19T15:48:19;100585.00;;;12.95;36.93
71299;BME280;59083;47.974;21.722;2023-03-19T15:51:24;100580.06;;;12.92;36.88
71299;BME280;59083;47.974;21.722;2023-03-19T15:54:26;100584.97;;;12.88;37.00
71299;BME280;59083;47.974;21.722;2023-03-19T15:57:28;100580.22;;;12.83;37.13
71299;BME280;59083;47.974;21.722;2023-03-19T16:00:30;100577.94;;;12.80;36.49
71299;BME280;59083;47.974;21.722;2023-03-19T16:03:37;100579.34;;;12.76;37.15
71299;BME280;59083;47.974;21.722;2023-03-19T16:06:39;100579.91;;;12.65;37.28
71299;BME280;59083;47.974;21.722;2023-03-19T16:09:41;100590.13;;;12.55;37.40
71299;BME280;59083;47.974;21.722;2023-03-19T16:12:48;100585.78;;;12.54;37.46
71299;BME280;59083;47.974;21.722;2023-03-19T16:16:16;100585.50;;;12.42;38.53
71299;BME280;59083;47.974;21.722;2023-03-19T16:19:36;100590.78;;;12.36;38.77
71299;BME280;59083;47.974;21.722;2023-03-19T16:22:38;100595.66;;;12.26;39.53
71299;BME280;59083;47.974;21.722;2023-03-19T16:25:43;100593.75;;;12.20;39.66
71299;BME280;59083;47.974;21.722;2023-03-19T16:28:54;100609.28;;;12.10;40.10
71299;BME280;59083;47.974;21.722;2023-03-19T16:32:03;100608.19;;;12.04;39.66
71299;BME280;59083;47.974;21.722;2023-03-19T16:35:14;100612.66;;;11.97;40.57
71299;BME280;59083;47.974;21.722;2023-03-19T16:38:24;100610.53;;;11.92;41.33
71299;BME280;59083;47.974;21.722;2023-03-19T16:41:29;100608.03;;;11.84;40.72
71299;BME280;59083;47.974;21.722;2023-03-19T16:44:32;100614.47;;;11.75;41.12
71299;BME280;59083;47.974;21.722;2023-03-19T16:47:33;100617.25;;;11.67;41.50
71299;BME280;59083;47.974;21.722;2023-03-19T16:50:37;100619.28;;;11.65;42.15
71299;BME280;59083;47.974;21.722;2023-03-19T16:53:40;100624.84;;;11.49;41.81
71299;BME280;59083;47.974;21.722;2023-03-19T16:56:41;100624.31;;;11.39;42.49
71299;BME280;59083;47.974;21.722;2023-03-19T16:59:43;100630.00;;;11.36;41.74
71299;BME280;59083;47.974;21.722;2023-03-19T17:02:44;100622.31;;;11.26;41.98
71299;BME280;59083;47.974;21.722;2023-03-19T17:05:46;100621.56;;;11.17;42.31
71299;BME280;59083;47.974;21.722;2023-03-19T17:08:48;100624.34;;;11.09;42.47
71299;BME280;59083;47.974;21.722;2023-03-19T17:11:49;100629.94;;;11.00;43.88